sensor_id;sensor_type;location;lat;lon;timestamp;pressure;altitude;pressure_sealevel;temperature;humidity
45247;BME280;31529;51.158;7.354;2022-11-02T00:00:19;98045.63;;;13.97;66.04
45247;BME280;31529;51.158;7.354;2022-11-02T00:00:50;98040.75;;;13.99;65.77
45247;BME280;31529;51.158;7.354;2022-11-02T00:01:25;98048.19;;;14.02;66.00
45247;BME280;31529;51.158;7.354;2022-11-02T00:02:00;98055.75;;;14.00;65.65
45247;BME280;31529;51.158;7.354;2022-11-02T00:02:31;98048.00;;;13.99;65.95
45247;BME280;31529;51.158;7.354;2022-11-02T00:03:02;98045.03;;;14.00;65.75
45247;BME280;31529;51.158;7.354;2022-11-02T00:03:33;98039.19;;;13.98;65.74
45247;BME280;31529;51.158;7.354;2022-11-02T00:04:04;98038.84;;;14.00;66.34
45247;BME280;31529;51.158;7.354;2022-11-02T00:04:35;98039.66;;;14.00;66.28
45247;BME280;31529;51.158;7.354;2022-11-02T00:05:10;98030.50;;;14.01;65.98
45247;BME280;31529;51.158;7.354;2022-11-02T00:05:42;98031.31;;;14.02;66.20
45247;BME280;31529;51.158;7.354;2022-11-02T00:06:13;98030.97;;;14.03;66.10
45247;BME280;31529;51.158;7.354;2022-11-02T00:06:44;98030.31;;;13.98;66.20
45247;BME280;31529;51.158;7.354;2022-11-02T00:07:15;98030.97;;;14.03;65.90
45247;BME280;31529;51.158;7.354;2022-11-02T00:07:46;98028.78;;;14.05;66.06
45247;BME280;31529;51.158;7.354;2022-11-02T00:08:17;98031.47;;;14.05;66.18
45247;BME280;31529;51.158;7.354;2022-11-02T00:08:48;98027.72;;;14.06;65.88
45247;BME280;31529;51.158;7.354;2022-11-02T00:09:19;98032.09;;;14.02;66.23
45247;BME280;31529;51.158;7.354;2022-11-02T00:09:50;98031.81;;;14.04;66.04
45247;BME280;31529;51.158;7.354;2022-11-02T00:10:32;98031.19;;;14.07;66.31
45247;BME280;31529;51.158;7.354;2022-11-02T00:11:11;98028.00;;;14.05;65.79
45247;BME280;31529;51.158;7.354;2022-11-02T00:11:42;98025.13;;;14.01;65.81
45247;BME280;31529;51.158;7.354;2022-11-02T00:12:13;98030.31;;;13.98;65.81
45247;BME280;31529;51.158;7.354;2022-11-02T00:12:44;98034.88;;;13.97;66.37
45247;BME280;31529;51.158;7.354;2022-11-02T00:13:16;98026.25;;;14.00;66.33
45247;BME280;31529;51.158;7.354;2022-11-02T00:13:48;98032.69;;;13.99;66.21
45247;BME280;31529;51.158;7.354;2022-11-02T00:14:19;98021.19;;;13.99;65.84
45247;BME280;31529;51.158;7.354;2022-11-02T00:14:50;98032.09;;;14.02;66.07
45247;BME280;31529;51.158;7.354;2022-11-02T00:15:22;98029.41;;;14.02;66.32
45247;BME280;31529;51.158;7.354;2022-11-02T00:15:56;98032.09;;;14.02;65.81
45247;BME280;31529;51.158;7.354;2022-11-02T00:16:31;98032.09;;;14.02;66.07
45247;BME280;31529;51.158;7.354;2022-11-02T00:17:03;98022.75;;;14.00;66.03
45247;BME280;31529;51.158;7.354;2022-11-02T00:17:34;98020.59;;;14.02;66.02
45247;BME280;31529;51.158;7.354;2022-11-02T00:18:08;98023.06;;;13.98;66.00
45247;BME280;31529;51.158;7.354;2022-11-02T00:18:42;98027.31;;;13.99;65.82
45247;BME280;31529;51.158;7.354;2022-11-02T00:19:16;98017.72;;;13.98;66.00
45247;BME280;31529;51.158;7.354;2022-11-02T00:19:47;98022.44;;;14.01;66.09
45247;BME280;31529;51.158;7.354;2022-11-02T00:20:19;98006.34;;;14.01;66.37
45247;BME280;31529;51.158;7.354;2022-11-02T00:20:50;98019.78;;;14.01;66.10
45247;BME280;31529;51.158;7.354;2022-11-02T00:21:21;98011.41;;;14.03;66.21
45247;BME280;31529;51.158;7.354;2022-11-02T00:21:55;98010.81;;;14.06;66.06
45247;BME280;31529;51.158;7.354;2022-11-02T00:22:28;98010.53;;;14.08;65.72
45247;BME280;31529;51.158;7.354;2022-11-02T00:22:59;98010.81;;;14.06;65.90
45247;BME280;31529;51.158;7.354;2022-11-02T00:23:32;98013.13;;;13.99;65.86
45247;BME280;31529;51.158;7.354;2022-11-02T00:24:03;98025.94;;;14.02;65.64
45247;BME280;31529;51.158;7.354;2022-11-02T00:24:35;98013.81;;;14.04;65.84
45247;BME280;31529;51.158;7.354;2022-11-02T00:25:07;98014.00;;;14.08;66.03
45247;BME280;31529;51.158;7.354;2022-11-02T00:25:44;98015.88;;;14.08;66.06
45247;BME280;31529;51.158;7.354;2022-11-02T00:26:17;98015.88;;;14.08;65.84
45247;BME280;31529;51.158;7.354;2022-11-02T00:26:48;98016.19;;;14.06;65.74
45247;BME280;31529;51.158;7.354;2022-11-02T00:27:19;98012.88;;;14.09;65.62
45247;BME280;31529;51.158;7.354;2022-11-02T00:27:52;98020.63;;;14.11;65.83
45247;BME280;31529;51.158;7.354;2022-11-02T00:28:23;98020.63;;;14.11;66.04
45247;BME280;31529;51.158;7.354;2022-11-02T00:28:54;98016.38;;;14.10;66.12
45247;BME280;31529;51.158;7.354;2022-11-02T00:29:26;98021.41;;;14.11;66.00
45247;BME280;31529;51.158;7.354;2022-11-02T00:29:58;98018.56;;;14.08;66.22
45247;BME280;31529;51.158;7.354;2022-11-02T00:30:29;98017.16;;;14.10;65.92
45247;BME280;31529;51.158;7.354;2022-11-02T00:31:01;98022.53;;;14.10;66.25
45247;BME280;31529;51.158;7.354;2022-11-02T00:31:32;98018.72;;;14.11;65.74
45247;BME280;31529;51.158;7.354;2022-11-02T00:32:03;98019.72;;;14.15;66.41
45247;BME280;31529;51.158;7.354;2022-11-02T00:32:34;98015.16;;;14.16;66.13
45247;BME280;31529;51.158;7.354;2022-11-02T00:33:05;98018.91;;;14.15;65.78
45247;BME280;31529;51.158;7.354;2022-11-02T00:33:36;98008.47;;;14.13;65.64
45247;BME280;31529;51.158;7.354;2022-11-02T00:34:08;98009.31;;;14.14;65.82
45247;BME280;31529;51.158;7.354;2022-11-02T00:34:39;98021.56;;;14.06;65.58
45247;BME280;31529;51.158;7.354;2022-11-02T00:35:10;98031.19;;;14.07;66.19
45247;BME280;31529;51.158;7.354;2022-11-02T00:35:41;98039.22;;;14.07;66.17
45247;BME280;31529;51.158;7.354;2022-11-02T00:36:14;98033.06;;;14.06;65.74
45247;BME280;31529;51.158;7.354;2022-11-02T00:36:46;98030.56;;;14.10;65.73
45247;BME280;31529;51.158;7.354;2022-11-02T00:37:18;98019.22;;;14.13;66.12
45247;BME280;31529;51.158;7.354;2022-11-02T00:37:49;98018.13;;;14.14;66.03
45247;BME280;31529;51.158;7.354;2022-11-02T00:38:20;98014.03;;;14.17;65.77
45247;BME280;31529;51.158;7.354;2022-11-02T00:38:51;98008.63;;;14.08;66.24
45247;BME280;31529;51.158;7.354;2022-11-02T00:39:22;98015.06;;;14.07;66.79
45247;BME280;31529;51.158;7.354;2022-11-02T00:39:53;98014.78;;;14.09;67.55
45247;BME280;31529;51.158;7.354;2022-11-02T00:40:24;98002.28;;;14.04;67.76
45247;BME280;31529;51.158;7.354;2022-11-02T00:40:57;98015.38;;;14.05;68.35
45247;BME280;31529;51.158;7.354;2022-11-02T00:41:29;98004.91;;;13.95;68.62
45247;BME280;31529;51.158;7.354;2022-11-02T00:42:00;98013.44;;;13.97;68.66
45247;BME280;31529;51.158;7.354;2022-11-02T00:42:31;98008.06;;;13.97;69.01
45247;BME280;31529;51.158;7.354;2022-11-02T00:43:02;98012.84;;;14.00;69.31
45247;BME280;31529;51.158;7.354;2022-11-02T00:43:34;98004.09;;;13.95;69.61
45247;BME280;31529;51.158;7.354;2022-11-02T00:44:05;98011.59;;;13.84;68.89
45247;BME280;31529;51.158;7.354;2022-11-02T00:44:36;98008.41;;;13.82;68.93
45247;BME280;31529;51.158;7.354;2022-11-02T00:45:07;98018.66;;;13.80;69.00
45247;BME280;31529;51.158;7.354;2022-11-02T00:45:39;98012.19;;;13.81;69.66
45247;BME280;31529;51.158;7.354;2022-11-02T00:46:10;98017.88;;;13.79;70.08
45247;BME280;31529;51.158;7.354;2022-11-02T00:46:41;98016.66;;;13.85;70.28
45247;BME280;31529;51.158;7.354;2022-11-02T00:47:12;98016.47;;;13.82;70.04
45247;BME280;31529;51.158;7.354;2022-11-02T00:47:43;98017.75;;;13.84;69.51
45247;BME280;31529;51.158;7.354;2022-11-02T00:48:14;98014.28;;;13.84;69.38
45247;BME280;31529;51.158;7.354;2022-11-02T00:48:46;98012.38;;;13.84;70.11
45247;BME280;31529;51.158;7.354;2022-11-02T00:49:17;98012.38;;;13.84;70.01
45247;BME280;31529;51.158;7.354;2022-11-02T00:49:48;98021.22;;;13.85;69.86
45247;BME280;31529;51.158;7.354;2022-11-02T00:50:19;98019.03;;;13.87;69.82
45247;BME280;31529;51.158;7.354;2022-11-02T00:50:50;98011.00;;;13.87;69.62
45247;BME280;31529;51.158;7.354;2022-11-02T00:51:21;98016.03;;;13.89;70.05
45247;BME280;31529;51.158;7.354;2022-11-02T00:51:53;98012.25;;;13.90;69.58
45247;BME280;31529;51.158;7.354;2022-11-02T00:52:24;98009.88;;;13.88;69.71
45247;BME280;31529;51.158;7.354;2022-11-02T00:52:55;98013.06;;;13.90;70.02
45247;BME280;31529;51.158;7.354;2022-11-02T00:53:26;98017.34;;;13.91;69.52
45247;BME280;31529;51.158;7.354;2022-11-02T00:53:57;98017.34;;;13.91;69.86
45247;BME280;31529;51.158;7.354;2022-11-02T00:54:28;98014.66;;;13.91;70.09
45247;BME280;31529;51.158;7.354;2022-11-02T00:55:00;98006.59;;;13.91;69.85
45247;BME280;31529;51.158;7.354;2022-11-02T00:55:31;98013.88;;;13.91;69.77
45247;BME280;31529;51.158;7.354;2022-11-02T00:56:02;98023.28;;;13.88;69.65
45247;BME280;31529;51.158;7.354;2022-11-02T00:56:34;98016.34;;;13.87;69.61
45247;BME280;31529;51.158;7.354;2022-11-02T00:57:05;98008.59;;;13.85;69.08
45247;BME280;31529;51.158;7.354;2022-11-02T00:57:37;98011.28;;;13.85;69.25
45247;BME280;31529;51.158;7.354;2022-11-02T00:58:09;98013.97;;;13.85;69.18
45247;BME280;31529;51.158;7.354;2022-11-02T00:58:40;98012.06;;;13.86;69.20
45247;BME280;31529;51.158;7.354;2022-11-02T00:59:11;98002.63;;;13.89;68.84
45247;BME280;31529;51.158;7.354;2022-11-02T00:59:42;98008.91;;;13.84;68.83
45247;BME280;31529;51.158;7.354;2022-11-02T01:00:13;97997.69;;;13.82;68.82
45247;BME280;31529;51.158;7.354;2022-11-02T01:00:46;98004.66;;;13.83;68.88
45247;BME280;31529;51.158;7.354;2022-11-02T01:01:17;98003.53;;;13.84;68.99
45247;BME280;31529;51.158;7.354;2022-11-02T01:01:48;98001.97;;;13.83;69.03
45247;BME280;31529;51.158;7.354;2022-11-02T01:02:19;98007.63;;;13.81;68.67
45247;BME280;31529;51.158;7.354;2022-11-02T01:02:50;98000.88;;;13.84;69.02
45247;BME280;31529;51.158;7.354;2022-11-02T01:03:21;98004.47;;;13.79;68.85
45247;BME280;31529;51.158;7.354;2022-11-02T01:03:54;98006.13;;;13.75;69.01
45247;BME280;31529;51.158;7.354;2022-11-02T01:04:26;98003.78;;;13.74;69.10
45247;BME280;31529;51.158;7.354;2022-11-02T01:04:57;98004.75;;;13.78;69.14
45247;BME280;31529;51.158;7.354;2022-11-02T01:05:28;98009.00;;;13.79;69.42
45247;BME280;31529;51.158;7.354;2022-11-02T01:06:06;98002.66;;;13.75;69.39
45247;BME280;31529;51.158;7.354;2022-11-02T01:06:41;98007.75;;;13.76;69.54
45247;BME280;31529;51.158;7.354;2022-11-02T01:07:15;98008.81;;;13.75;69.22
45247;BME280;31529;51.158;7.354;2022-11-02T01:07:46;98008.97;;;13.70;68.92
45247;BME280;31529;51.158;7.354;2022-11-02T01:08:17;98011.84;;;13.74;69.19
45247;BME280;31529;51.158;7.354;2022-11-02T01:08:48;98014.03;;;13.72;69.73
45247;BME280;31529;51.158;7.354;2022-11-02T01:09:19;98020.38;;;13.76;69.20
45247;BME280;31529;51.158;7.354;2022-11-02T01:09:51;98018.75;;;13.75;69.25
45247;BME280;31529;51.158;7.354;2022-11-02T01:10:22;98017.19;;;13.74;69.57
45247;BME280;31529;51.158;7.354;2022-11-02T01:10:55;98004.97;;;13.67;69.55
45247;BME280;31529;51.158;7.354;2022-11-02T01:11:26;98004.97;;;13.67;69.33
45247;BME280;31529;51.158;7.354;2022-11-02T01:11:58;98010.03;;;13.69;69.43
45247;BME280;31529;51.158;7.354;2022-11-02T01:12:29;98015.09;;;13.71;69.82
45247;BME280;31529;51.158;7.354;2022-11-02T01:13:00;98000.63;;;13.72;69.70
45247;BME280;31529;51.158;7.354;2022-11-02T01:13:31;98009.16;;;13.74;69.81
45247;BME280;31529;51.158;7.354;2022-11-02T01:14:02;98011.94;;;13.69;69.71
45247;BME280;31529;51.158;7.354;2022-11-02T01:14:33;98008.97;;;13.70;69.31
45247;BME280;31529;51.158;7.354;2022-11-02T01:15:05;98012.44;;;13.71;69.64
45247;BME280;31529;51.158;7.354;2022-11-02T01:15:37;98009.75;;;13.71;69.45
45247;BME280;31529;51.158;7.354;2022-11-02T01:16:09;98012.44;;;13.71;69.77
45247;BME280;31529;51.158;7.354;2022-11-02T01:16:41;98009.16;;;13.74;69.21
45247;BME280;31529;51.158;7.354;2022-11-02T01:17:14;98009.16;;;13.74;69.44
45247;BME280;31529;51.158;7.354;2022-11-02T01:17:46;98009.25;;;13.69;69.37
45247;BME280;31529;51.158;7.354;2022-11-02T01:18:17;98009.75;;;13.71;69.65
45247;BME280;31529;51.158;7.354;2022-11-02T01:18:52;98009.16;;;13.74;69.44
45247;BME280;31529;51.158;7.354;2022-11-02T01:19:24;98007.56;;;13.73;69.58
45247;BME280;31529;51.158;7.354;2022-11-02T01:19:55;98007.25;;;13.74;69.56
45247;BME280;31529;51.158;7.354;2022-11-02T01:20:26;98008.34;;;13.73;69.36
45247;BME280;31529;51.158;7.354;2022-11-02T01:20:58;98008.03;;;13.75;69.44
45247;BME280;31529;51.158;7.354;2022-11-02T01:21:29;98011.94;;;13.69;69.42
45247;BME280;31529;51.158;7.354;2022-11-02T01:22:00;98010.34;;;13.67;69.43
45247;BME280;31529;51.158;7.354;2022-11-02T01:22:31;97956.03;;;13.39;69.20
45247;BME280;31529;51.158;7.354;2022-11-02T01:23:02;98011.00;;;13.73;69.36
45247;BME280;31529;51.158;7.354;2022-11-02T01:23:34;98011.84;;;13.74;69.46
45247;BME280;31529;51.158;7.354;2022-11-02T01:24:06;98013.59;;;13.78;69.17
45247;BME280;31529;51.158;7.354;2022-11-02T01:24:37;98014.88;;;13.81;69.40
45247;BME280;31529;51.158;7.354;2022-11-02T01:25:08;98009.50;;;13.81;69.33
45247;BME280;31529;51.158;7.354;2022-11-02T01:25:43;98011.09;;;13.82;69.21
45247;BME280;31529;51.158;7.354;2022-11-02T01:26:15;98010.91;;;13.78;69.26
45247;BME280;31529;51.158;7.354;2022-11-02T01:26:49;98002.56;;;13.80;68.92
45247;BME280;31529;51.158;7.354;2022-11-02T01:27:21;98005.16;;;13.71;69.06
45247;BME280;31529;51.158;7.354;2022-11-02T01:27:52;98005.34;;;13.75;68.93
45247;BME280;31529;51.158;7.354;2022-11-02T01:28:23;97997.78;;;13.77;68.99
45247;BME280;31529;51.158;7.354;2022-11-02T01:28:55;98007.94;;;13.80;68.88
45247;BME280;31529;51.158;7.354;2022-11-02T01:29:26;98009.00;;;13.79;68.85
45247;BME280;31529;51.158;7.354;2022-11-02T01:29:57;98005.53;;;13.78;68.93
45247;BME280;31529;51.158;7.354;2022-11-02T01:30:28;98010.13;;;13.78;69.07
45247;BME280;31529;51.158;7.354;2022-11-02T01:30:59;98002.06;;;13.78;69.11
45247;BME280;31529;51.158;7.354;2022-11-02T01:31:30;98006.34;;;13.79;69.08
45247;BME280;31529;51.158;7.354;2022-11-02T01:32:01;98008.53;;;13.77;69.05
45247;BME280;31529;51.158;7.354;2022-11-02T01:32:32;98009.00;;;13.79;69.14
45247;BME280;31529;51.158;7.354;2022-11-02T01:33:04;98003.06;;;13.82;68.78
45247;BME280;31529;51.158;7.354;2022-11-02T01:33:36;98008.41;;;13.82;69.28
45247;BME280;31529;51.158;7.354;2022-11-02T01:34:09;98009.69;;;13.84;68.77
45247;BME280;31529;51.158;7.354;2022-11-02T01:34:40;98010.00;;;13.83;69.07
45247;BME280;31529;51.158;7.354;2022-11-02T01:35:11;98014.28;;;13.84;68.82
45247;BME280;31529;51.158;7.354;2022-11-02T01:35:42;98013.00;;;13.81;69.06
45247;BME280;31529;51.158;7.354;2022-11-02T01:36:15;98012.50;;;13.79;68.91
45247;BME280;31529;51.158;7.354;2022-11-02T01:36:50;98015.06;;;13.84;68.84
45247;BME280;31529;51.158;7.354;2022-11-02T01:37:22;98012.38;;;13.84;68.97
45247;BME280;31529;51.158;7.354;2022-11-02T01:37:52;98018.06;;;13.83;68.91
45247;BME280;31529;51.158;7.354;2022-11-02T01:38:24;98012.69;;;13.83;69.17
45247;BME280;31529;51.158;7.354;2022-11-02T01:38:55;98017.75;;;13.84;69.05
45247;BME280;31529;51.158;7.354;2022-11-02T01:39:26;98017.44;;;13.86;69.27
45247;BME280;31529;51.158;7.354;2022-11-02T01:39:57;97932.78;;;13.35;69.01
45247;BME280;31529;51.158;7.354;2022-11-02T01:40:35;98022.22;;;13.89;68.77
45247;BME280;31529;51.158;7.354;2022-11-02T01:41:09;98012.84;;;13.86;69.03
45247;BME280;31529;51.158;7.354;2022-11-02T01:41:41;98019.81;;;13.88;68.84
45247;BME280;31529;51.158;7.354;2022-11-02T01:42:16;98008.31;;;13.87;69.03
45247;BME280;31529;51.158;7.354;2022-11-02T01:42:48;98020.81;;;13.92;69.05
45247;BME280;31529;51.158;7.354;2022-11-02T01:43:23;98018.91;;;13.92;69.06
45247;BME280;31529;51.158;7.354;2022-11-02T01:43:56;98020.81;;;13.92;68.83
45247;BME280;31529;51.158;7.354;2022-11-02T01:44:32;98018.41;;;13.90;68.97
45247;BME280;31529;51.158;7.354;2022-11-02T01:45:05;98011.66;;;13.93;68.76
45247;BME280;31529;51.158;7.354;2022-11-02T01:45:36;98018.31;;;13.95;68.66
45247;BME280;31529;51.158;7.354;2022-11-02T01:46:41;98013.44;;;13.97;68.61
45247;BME280;31529;51.158;7.354;2022-11-02T01:47:20;98020.88;;;14.00;68.56
45247;BME280;31529;51.158;7.354;2022-11-02T01:47:55;98024.66;;;13.99;68.65
45247;BME280;31529;51.158;7.354;2022-11-02T01:48:31;98019.47;;;14.03;68.77
45247;BME280;31529;51.158;7.354;2022-11-02T01:49:09;98016.19;;;14.06;68.80
45247;BME280;31529;51.158;7.354;2022-11-02T01:49:48;98017.56;;;14.03;68.52
45247;BME280;31529;51.158;7.354;2022-11-02T01:50:24;98022.34;;;14.06;68.81
45247;BME280;31529;51.158;7.354;2022-11-02T01:50:57;98012.69;;;14.05;68.33
45247;BME280;31529;51.158;7.354;2022-11-02T01:51:35;97927.22;;;13.45;68.36
45247;BME280;31529;51.158;7.354;2022-11-02T01:52:15;98011.13;;;14.04;68.40
45247;BME280;31529;51.158;7.354;2022-11-02T01:52:50;98008.16;;;14.06;68.41
45247;BME280;31529;51.158;7.354;2022-11-02T01:53:21;98008.63;;;14.08;68.51
45247;BME280;31529;51.158;7.354;2022-11-02T01:53:53;98016.38;;;14.10;68.61
45247;BME280;31529;51.158;7.354;2022-11-02T01:54:30;98007.84;;;14.08;68.30
45247;BME280;31529;51.158;7.354;2022-11-02T01:55:19;98007.50;;;14.09;68.42
45247;BME280;31529;51.158;7.354;2022-11-02T01:55:52;98005.31;;;14.11;68.26
45247;BME280;31529;51.158;7.354;2022-11-02T01:56:24;98001.84;;;14.11;68.05
45247;BME280;31529;51.158;7.354;2022-11-02T01:57:03;97996.59;;;14.05;68.25
45247;BME280;31529;51.158;7.354;2022-11-02T01:57:35;98008.00;;;14.11;68.20
45247;BME280;31529;51.158;7.354;2022-11-02T01:58:09;98008.19;;;14.15;68.12
45247;BME280;31529;51.158;7.354;2022-11-02T01:58:42;98005.81;;;14.13;68.32
45247;BME280;31529;51.158;7.354;2022-11-02T01:59:18;98007.50;;;14.09;68.19
45247;BME280;31529;51.158;7.354;2022-11-02T01:59:57;98006.91;;;14.12;67.97
45247;BME280;31529;51.158;7.354;2022-11-02T02:00:34;98011.34;;;14.17;68.18
45247;BME280;31529;51.158;7.354;2022-11-02T02:01:07;98009.00;;;14.15;68.06
45247;BME280;31529;51.158;7.354;2022-11-02T02:01:39;98012.59;;;14.11;68.07
45247;BME280;31529;51.158;7.354;2022-11-02T02:02:13;98003.25;;;14.08;68.36
45247;BME280;31529;51.158;7.354;2022-11-02T02:02:53;98014.19;;;14.12;68.39
45247;BME280;31529;51.158;7.354;2022-11-02T02:03:30;97998.38;;;14.10;68.13
45247;BME280;31529;51.158;7.354;2022-11-02T02:04:03;98010.19;;;14.09;68.04
45247;BME280;31529;51.158;7.354;2022-11-02T02:04:35;98002.63;;;14.11;67.95
45247;BME280;31529;51.158;7.354;2022-11-02T02:05:07;98012.47;;;14.16;68.20
45247;BME280;31529;51.158;7.354;2022-11-02T02:05:41;98013.75;;;14.18;68.18
45247;BME280;31529;51.158;7.354;2022-11-02T02:06:15;98009.66;;;14.21;68.04
45247;BME280;31529;51.158;7.354;2022-11-02T02:06:47;98005.56;;;14.23;68.06
45247;BME280;31529;51.158;7.354;2022-11-02T02:07:20;98010.94;;;14.23;67.91
45247;BME280;31529;51.158;7.354;2022-11-02T02:07:53;98005.28;;;14.25;67.78
45247;BME280;31529;51.158;7.354;2022-11-02T02:08:26;98012.50;;;14.24;67.49
45247;BME280;31529;51.158;7.354;2022-11-02T02:08:59;98003.38;;;14.25;67.77
45247;BME280;31529;51.158;7.354;2022-11-02T02:09:34;98002.88;;;14.23;67.83
45247;BME280;31529;51.158;7.354;2022-11-02T02:10:05;98001.00;;;14.24;67.94
45247;BME280;31529;51.158;7.354;2022-11-02T02:10:38;98005.75;;;14.27;67.90
45247;BME280;31529;51.158;7.354;2022-11-02T02:12:03;98003.06;;;14.27;67.60
45247;BME280;31529;51.158;7.354;2022-11-02T02:12:36;98005.75;;;14.27;67.43
45247;BME280;31529;51.158;7.354;2022-11-02T02:13:10;98016.00;;;14.25;67.76
45247;BME280;31529;51.158;7.354;2022-11-02T02:13:42;98006.34;;;14.24;68.02
45247;BME280;31529;51.158;7.354;2022-11-02T02:14:14;98010.94;;;14.23;67.85
45247;BME280;31529;51.158;7.354;2022-11-02T02:14:47;98003.69;;;14.24;67.69
45247;BME280;31529;51.158;7.354;2022-11-02T02:15:20;98006.84;;;14.26;67.77
45247;BME280;31529;51.158;7.354;2022-11-02T02:15:59;98006.84;;;14.26;67.99
45247;BME280;31529;51.158;7.354;2022-11-02T02:17:43;98008.94;;;14.29;68.00
45247;BME280;31529;51.158;7.354;2022-11-02T02:18:25;98010.00;;;14.28;67.65
45247;BME280;31529;51.158;7.354;2022-11-02T02:19:06;98005.94;;;14.31;68.00
45247;BME280;31529;51.158;7.354;2022-11-02T02:21:04;98005.75;;;14.27;67.88
45247;BME280;31529;51.158;7.354;2022-11-02T02:23:00;98009.16;;;14.19;68.60
45247;BME280;31529;51.158;7.354;2022-11-02T02:24:04;98005.88;;;14.22;68.08
45247;BME280;31529;51.158;7.354;2022-11-02T02:24:50;97989.28;;;14.20;68.01
45247;BME280;31529;51.158;7.354;2022-11-02T02:25:39;98007.28;;;14.19;68.06
45247;BME280;31529;51.158;7.354;2022-11-02T02:26:55;98005.69;;;14.18;68.51
45247;BME280;31529;51.158;7.354;2022-11-02T02:29:18;98000.63;;;14.17;68.35
45247;BME280;31529;51.158;7.354;2022-11-02T02:30:02;97995.75;;;14.19;68.53
45247;BME280;31529;51.158;7.354;2022-11-02T02:30:38;97993.88;;;14.19;68.50
45247;BME280;31529;51.158;7.354;2022-11-02T02:32:30;98003.31;;;14.17;67.64
45247;BME280;31529;51.158;7.354;2022-11-02T02:33:15;98000.63;;;14.17;68.16
45247;BME280;31529;51.158;7.354;2022-11-02T02:33:57;97995.25;;;14.17;68.42
45247;BME280;31529;51.158;7.354;2022-11-02T02:34:34;98000.75;;;14.12;68.36
45247;BME280;31529;51.158;7.354;2022-11-02T02:35:13;97999.78;;;14.08;68.50
45247;BME280;31529;51.158;7.354;2022-11-02T02:35:53;98005.28;;;14.02;68.78
45247;BME280;31529;51.158;7.354;2022-11-02T02:37:50;98001.28;;;14.00;69.14
45247;BME280;31529;51.158;7.354;2022-11-02T02:39:40;98003.84;;;14.05;68.93
45247;BME280;31529;51.158;7.354;2022-11-02T02:40:18;98005.75;;;14.04;69.11
45247;BME280;31529;51.158;7.354;2022-11-02T02:40:58;98004.47;;;14.02;68.96
45247;BME280;31529;51.158;7.354;2022-11-02T02:41:44;98002.09;;;14.00;69.31
45247;BME280;31529;51.158;7.354;2022-11-02T02:43:20;98007.56;;;13.95;69.44
45247;BME280;31529;51.158;7.354;2022-11-02T02:44:01;98004.78;;;14.00;69.24
45247;BME280;31529;51.158;7.354;2022-11-02T02:44:35;98009.84;;;14.02;69.05
45247;BME280;31529;51.158;7.354;2022-11-02T02:45:27;98014.03;;;13.94;69.47
45247;BME280;31529;51.158;7.354;2022-11-02T02:46:10;98014.22;;;13.98;69.43
45247;BME280;31529;51.158;7.354;2022-11-02T02:46:58;98007.56;;;13.95;69.30
45247;BME280;31529;51.158;7.354;2022-11-02T02:47:33;98017.72;;;13.98;69.61
45247;BME280;31529;51.158;7.354;2022-11-02T02:48:17;98005.56;;;14.01;69.33
45247;BME280;31529;51.158;7.354;2022-11-02T02:48:50;98004.47;;;14.02;69.42
45247;BME280;31529;51.158;7.354;2022-11-02T02:49:28;98001.28;;;14.00;69.42
45247;BME280;31529;51.158;7.354;2022-11-02T02:50:25;98011.47;;;13.89;69.26
45247;BME280;31529;51.158;7.354;2022-11-02T02:51:00;98009.28;;;13.91;69.88
45247;BME280;31529;51.158;7.354;2022-11-02T02:51:39;98007.69;;;13.90;69.53
45247;BME280;31529;51.158;7.354;2022-11-02T02:52:12;98003.63;;;13.93;69.64
45247;BME280;31529;51.158;7.354;2022-11-02T02:52:45;98011.03;;;13.96;69.79
45247;BME280;31529;51.158;7.354;2022-11-02T02:53:31;98007.47;;;14.00;69.49
45247;BME280;31529;51.158;7.354;2022-11-02T02:54:06;98005.28;;;14.02;69.69
45247;BME280;31529;51.158;7.354;2022-11-02T02:54:42;98010.75;;;13.97;69.46
45247;BME280;31529;51.158;7.354;2022-11-02T02:55:21;98012.66;;;13.97;69.52
45247;BME280;31529;51.158;7.354;2022-11-02T02:55:57;97997.94;;;13.94;69.58
45247;BME280;31529;51.158;7.354;2022-11-02T02:56:35;97915.81;;;13.25;70.20
45247;BME280;31529;51.158;7.354;2022-11-02T02:57:12;98009.28;;;13.91;69.84
45247;BME280;31529;51.158;7.354;2022-11-02T02:57:46;98009.41;;;13.86;69.58
45247;BME280;31529;51.158;7.354;2022-11-02T02:58:20;98009.28;;;13.91;70.35
45247;BME280;31529;51.158;7.354;2022-11-02T02:58:55;98005.50;;;13.92;69.92
45247;BME280;31529;51.158;7.354;2022-11-02T02:59:38;98016.72;;;13.94;69.59
45247;BME280;31529;51.158;7.354;2022-11-02T03:00:12;98014.22;;;13.98;69.54
45247;BME280;31529;51.158;7.354;2022-11-02T03:00:46;98011.22;;;13.99;69.58
45247;BME280;31529;51.158;7.354;2022-11-02T03:01:17;98009.84;;;14.02;69.52
45247;BME280;31529;51.158;7.354;2022-11-02T03:01:49;98014.59;;;14.05;69.58
45247;BME280;31529;51.158;7.354;2022-11-02T03:02:22;98016.97;;;14.06;69.60
45247;BME280;31529;51.158;7.354;2022-11-02T03:02:56;98009.22;;;14.05;69.65
45247;BME280;31529;51.158;7.354;2022-11-02T03:03:30;98009.72;;;14.07;69.64
45247;BME280;31529;51.158;7.354;2022-11-02T03:04:04;98005.16;;;14.08;69.39
45247;BME280;31529;51.158;7.354;2022-11-02T03:04:35;98014.28;;;14.06;69.25
45247;BME280;31529;51.158;7.354;2022-11-02T03:05:22;97999.59;;;14.04;69.38
45247;BME280;31529;51.158;7.354;2022-11-02T03:06:03;98004.31;;;13.98;69.48
45247;BME280;31529;51.158;7.354;2022-11-02T03:06:45;98009.84;;;14.02;69.28
45247;BME280;31529;51.158;7.354;2022-11-02T03:07:22;98010.34;;;14.04;69.29
45247;BME280;31529;51.158;7.354;2022-11-02T03:07:57;98010.63;;;14.02;69.52
45247;BME280;31529;51.158;7.354;2022-11-02T03:08:37;98013.13;;;13.99;69.57
45247;BME280;31529;51.158;7.354;2022-11-02T03:10:52;98016.84;;;13.89;70.13
45247;BME280;31529;51.158;7.354;2022-11-02T03:11:35;98015.44;;;13.92;70.05
45247;BME280;31529;51.158;7.354;2022-11-02T03:13:39;98018.59;;;13.94;69.70
45247;BME280;31529;51.158;7.354;2022-11-02T03:14:26;98025.38;;;13.91;69.70
45247;BME280;31529;51.158;7.354;2022-11-02T03:15:09;98021.91;;;13.91;69.69